Time;durP1;ratioP1;P1;durP2;ratioP2;P2;SDS_P1;SDS_P2;PMS_P1;PMS_P2;Temp;Humidity;BMP_temperature;BMP_pressure;BME280_temperature;BME280_humidity;BME280_pressure;Samples;Min_cycle;Max_cycle;Signal;HPM_P1;HPM_P2
2023/06/02 00:02:07;;;;;;;10.75;2.85;;;;;;;16.71;nan;101399.28;5050680;28;20075;-41
2023/06/02 00:04:32;;;;;;;10.82;1.85;;;;;;;16.70;nan;101397.63;5047274;28;20025;-41
2023/06/02 00:07:03;;;;;;;18.48;2.05;;;;;;;16.53;nan;101392.69;5047111;28;20036;-41
2023/06/02 00:09:36;;;;;;;12.85;2.35;;;;;;;16.52;nan;101402.44;5044510;28;20072;-40
2023/06/02 00:12:01;;;;;;;11.77;3.20;;;;;;;16.57;nan;101402.97;5047787;28;20705;-41
2023/06/02 00:14:27;;;;;;;9.38;2.30;;;;;;;16.57;nan;101410.06;5044839;28;20535;-41
2023/06/02 00:16:53;;;;;;;10.32;2.00;;;;;;;16.57;nan;101412.72;5041167;28;20029;-41
2023/06/02 00:19:20;;;;;;;6.68;2.20;;;;;;;16.54;nan;101407.66;5046971;28;20048;-41
2023/06/02 00:21:47;;;;;;;8.13;2.08;;;;;;;16.44;nan;101410.97;5047245;28;20058;-41
2023/06/02 00:24:13;;;;;;;5.13;2.10;;;;;;;16.38;nan;101414.09;5048615;28;20080;-40
2023/06/02 00:26:38;;;;;;;6.85;1.77;;;;;;;16.31;nan;101407.50;5051194;28;20474;-41
2023/06/02 00:29:04;;;;;;;10.73;2.50;;;;;;;16.31;nan;101412.81;5045387;28;20029;-41
2023/06/02 00:31:29;;;;;;;8.95;1.92;;;;;;;16.34;nan;101406.41;5048761;28;20041;-40
2023/06/02 00:33:55;;;;;;;10.27;2.03;;;;;;;16.47;nan;101407.25;5048798;28;20451;-40
2023/06/02 00:36:20;;;;;;;9.50;2.15;;;;;;;16.39;nan;101401.63;5048986;28;20032;-39
2023/06/02 00:38:46;;;;;;;13.32;3.42;;;;;;;16.28;nan;101397.09;5040910;28;20041;-39
2023/06/02 00:41:11;;;;;;;9.18;3.03;;;;;;;16.33;nan;101402.94;5053466;28;20039;-39
2023/06/02 00:43:37;;;;;;;9.93;2.63;;;;;;;16.46;nan;101400.25;5045003;28;20037;-39
2023/06/02 00:46:02;;;;;;;10.20;1.90;;;;;;;16.52;nan;101405.09;5044196;28;20035;-39
2023/06/02 00:48:28;;;;;;;11.68;2.00;;;;;;;16.59;nan;101402.84;5043051;28;20040;-39
2023/06/02 00:50:53;;;;;;;10.40;2.60;;;;;;;16.67;nan;101403.16;5045441;28;20080;-39
2023/06/02 00:53:19;;;;;;;8.52;2.15;;;;;;;16.67;nan;101408.47;5049051;28;20086;-38
2023/06/02 00:55:45;;;;;;;10.38;2.00;;;;;;;16.76;nan;101410.44;5046611;28;20040;-39
2023/06/02 00:58:13;;;;;;;6.05;1.40;;;;;;;16.81;nan;101404.78;5045524;28;20033;-37
2023/06/02 01:00:43;;;;;;;15.25;3.13;;;;;;;16.79;nan;101413.81;5044707;28;20056;-39
2023/06/02 01:03:08;;;;;;;7.10;1.77;;;;;;;16.81;nan;101415.41;5047391;28;20104;-39
2023/06/02 01:05:36;;;;;;;8.52;2.55;;;;;;;16.87;nan;101407.00;5044833;28;21842;-41
2023/06/02 01:08:04;;;;;;;7.93;2.53;;;;;;;16.89;nan;101413.03;5045563;28;20398;-40
2023/06/02 01:10:31;;;;;;;18.98;3.67;;;;;;;16.85;nan;101410.72;5037100;28;20043;-40
2023/06/02 01:12:57;;;;;;;11.98;2.13;;;;;;;16.84;nan;101409.88;5049728;28;20052;-41
2023/06/02 01:15:23;;;;;;;10.48;2.90;;;;;;;16.77;nan;101421.94;5043963;28;20390;-39
2023/06/02 01:17:50;;;;;;;13.45;2.65;;;;;;;16.67;nan;101423.53;5041869;28;20064;-38
2023/06/02 01:20:21;;;;;;;13.70;3.67;;;;;;;16.58;nan;101430.38;5040169;28;20033;-39
2023/06/02 01:23:15;;;;;;;10.48;2.55;;;;;;;16.41;nan;101435.09;5043989;28;20040;-40
2023/06/02 01:25:41;;;;;;;7.82;2.05;;;;;;;16.26;nan;101430.91;5045072;28;20494;-40
2023/06/02 01:28:07;;;;;;;15.40;2.33;;;;;;;16.24;nan;101430.16;5043913;28;20060;-40
2023/06/02 01:30:33;;;;;;;10.50;2.20;;;;;;;16.17;nan;101432.41;5045274;28;20376;-38
2023/06/02 01:33:47;;;;;;;15.40;3.97;;;;;;;16.07;nan;101436.63;5045416;28;20047;-39
2023/06/02 01:36:15;;;;;;;9.13;2.78;;;;;;;15.98;nan;101432.81;4956912;28;20512;-40
2023/06/02 01:38:42;;;;;;;11.20;2.05;;;;;;;15.89;nan;101433.47;5034910;28;20056;-38
2023/06/02 01:41:08;;;;;;;9.68;2.10;;;;;;;15.87;nan;101440.69;5039730;28;20025;-39
2023/06/02 01:43:35;;;;;;;12.23;2.90;;;;;;;15.81;nan;101436.63;5032061;28;20033;-39
2023/06/02 01:46:01;;;;;;;13.63;2.60;;;;;;;15.80;nan;101438.44;5043633;28;20029;-40
2023/06/02 01:48:29;;;;;;;12.50;3.55;;;;;;;15.80;nan;101443.75;5047567;28;20033;-38
2023/06/02 01:50:55;;;;;;;8.95;2.10;;;;;;;15.84;nan;101442.56;5040754;28;20029;-39
2023/06/02 01:53:20;;;;;;;9.55;2.63;;;;;;;15.81;nan;101442.75;5028565;28;20410;-39
2023/06/02 01:55:47;;;;;;;9.93;2.83;;;;;;;15.76;nan;101447.56;5045214;28;20021;-40
2023/06/02 01:58:13;;;;;;;12.05;2.60;;;;;;;15.78;nan;101448.31;5046260;28;20032;-38
2023/06/02 02:00:38;;;;;;;11.98;2.95;;;;;;;15.80;nan;101448.19;5040824;28;20426;-39
2023/06/02 02:03:04;;;;;;;12.73;2.95;;;;;;;15.79;nan;101447.34;5044705;28;20060;-40
2023/06/02 02:05:30;;;;;;;19.30;3.13;;;;;;;15.90;nan;101457.22;5024858;28;20141;-40
2023/06/02 02:07:57;;;;;;;12.75;3.05;;;;;;;15.95;nan;101462.25;5028402;28;20443;-40
2023/06/02 02:10:23;;;;;;;12.23;2.45;;;;;;;15.93;nan;101458.84;5024592;28;20037;-39
2023/06/02 02:12:48;;;;;;;12.43;2.60;;;;;;;15.91;nan;101461.59;5044859;28;20041;-39
2023/06/02 02:15:15;;;;;;;14.43;3.13;;;;;;;15.84;nan;101458.47;5031087;28;20067;-39
2023/06/02 02:17:45;;;;;;;10.30;2.33;;;;;;;15.83;nan;101466.56;5038502;28;20033;-39
2023/06/02 02:20:21;;;;;;;7.68;1.92;;;;;;;15.81;nan;101461.34;5036989;28;20453;-40
2023/06/02 02:22:46;;;;;;;11.27;2.83;;;;;;;15.77;nan;101462.53;5021852;28;20099;-40
2023/06/02 02:25:12;;;;;;;10.48;2.40;;;;;;;15.76;nan;101462.59;5043696;28;20033;-39
2023/06/02 02:27:39;;;;;;;9.65;2.60;;;;;;;15.72;nan;101467.28;5041806;28;20037;-39
2023/06/02 02:30:06;;;;;;;7.57;2.85;;;;;;;15.70;nan;101478.00;5044471;28;20036;-39
2023/06/02 02:32:34;;;;;;;11.02;3.60;;;;;;;15.72;nan;101471.75;5042536;28;20035;-40
2023/06/02 02:34:59;;;;;;;9.85;3.03;;;;;;;15.74;nan;101467.16;5037967;28;20438;-39
2023/06/02 02:37:25;;;;;;;12.38;2.67;;;;;;;15.79;nan;101462.41;5022467;28;20045;-40
2023/06/02 02:39:50;;;;;;;18.27;3.75;;;;;;;15.82;nan;101464.84;5039735;28;20083;-39
2023/06/02 02:42:15;;;;;;;9.73;2.30;;;;;;;15.83;nan;101467.38;5043948;28;20029;-40
2023/06/02 02:44:41;;;;;;;12.88;2.20;;;;;;;15.89;nan;101470.63;5045775;28;20040;-42
2023/06/02 02:47:07;;;;;;;17.13;3.28;;;;;;;15.87;nan;101468.09;5034684;28;20037;-41
2023/06/02 02:49:32;;;;;;;14.23;2.60;;;;;;;15.87;nan;101472.53;5037916;28;20040;-40
2023/06/02 02:51:58;;;;;;;12.25;3.35;;;;;;;15.94;nan;101479.13;5044529;28;20487;-41
2023/06/02 02:54:25;;;;;;;11.65;2.40;;;;;;;15.98;nan;101475.28;5043490;28;20036;-39
2023/06/02 02:56:52;;;;;;;13.85;2.90;;;;;;;15.96;nan;101479.84;5045694;28;20033;-40
2023/06/02 02:59:17;;;;;;;13.93;2.72;;;;;;;15.88;nan;101484.84;5040818;28;20052;-40
2023/06/02 03:01:46;;;;;;;14.48;4.25;;;;;;;15.82;nan;101486.91;5041173;28;20414;-39
2023/06/02 03:04:21;;;;;;;12.45;2.75;;;;;;;15.84;nan;101485.00;5048294;28;20025;-40
2023/06/02 03:06:52;;;;;;;11.15;2.50;;;;;;;15.85;nan;101484.09;5049521;28;20033;-40
2023/06/02 03:09:18;;;;;;;12.50;3.10;;;;;;;15.84;nan;101490.31;5041869;28;20068;-39
2023/06/02 03:11:43;;;;;;;11.50;3.35;;;;;;;15.91;nan;101495.25;5045042;28;20029;-39
2023/06/02 03:14:10;;;;;;;14.23;3.65;;;;;;;16.01;nan;101501.63;5050752;28;20036;-40
2023/06/02 03:16:39;;;;;;;8.85;2.75;;;;;;;16.09;nan;101512.56;5044713;28;20033;-39
2023/06/02 03:19:05;;;;;;;7.90;2.85;;;;;;;16.09;nan;101520.53;5032023;28;20024;-38
2023/06/02 03:21:31;;;;;;;12.88;3.35;;;;;;;16.08;nan;101518.84;5030095;28;20051;-39
2023/06/02 03:23:58;;;;;;;17.95;3.70;;;;;;;16.17;nan;101519.16;5044181;28;20025;-39
2023/06/02 03:26:26;;;;;;;9.98;2.65;;;;;;;16.18;nan;101519.06;5031260;28;20402;-40
2023/06/02 03:28:52;;;;;;;10.73;2.90;;;;;;;16.26;nan;101515.88;5045888;28;29510;-40
2023/06/02 03:31:19;;;;;;;9.35;3.60;;;;;;;16.30;nan;101522.66;5021793;28;20031;-40
2023/06/02 03:33:46;;;;;;;8.43;1.92;;;;;;;16.30;nan;101522.66;5034833;28;20025;-40
2023/06/02 03:36:11;;;;;;;13.27;3.72;;;;;;;16.30;nan;101526.16;5029895;28;20037;-40
2023/06/02 03:38:37;;;;;;;7.47;3.00;;;;;;;16.37;nan;101528.38;5034504;28;20064;-39
2023/06/02 03:41:03;;;;;;;12.57;3.10;;;;;;;16.39;nan;101530.00;5038378;28;20940;-40
2023/06/02 03:43:28;;;;;;;16.08;3.40;;;;;;;16.43;nan;101523.47;5048409;28;20037;-40
2023/06/02 03:45:53;;;;;;;14.35;4.57;;;;;;;16.45;nan;101526.88;5040353;28;20029;-40
2023/06/02 03:48:19;;;;;;;21.75;4.20;;;;;;;16.49;nan;101534.63;5031807;28;20119;-39
2023/06/02 03:50:44;;;;;;;14.00;4.53;;;;;;;16.49;nan;101532.81;5048716;28;20498;-40
2023/06/02 03:53:10;;;;;;;17.55;3.83;;;;;;;16.46;nan;101533.91;5031455;28;20476;-40
2023/06/02 03:55:35;;;;;;;16.83;4.63;;;;;;;16.53;nan;101533.47;5046359;28;20029;-40
2023/06/02 03:58:00;;;;;;;14.48;3.50;;;;;;;16.59;nan;101544.53;5031129;28;20096;-40
2023/06/02 04:00:26;;;;;;;18.52;4.22;;;;;;;16.67;nan;101551.09;5047693;28;20558;-40
2023/06/02 04:02:52;;;;;;;16.38;4.60;;;;;;;16.70;nan;101549.06;5040821;28;20033;-40
2023/06/02 04:05:17;;;;;;;19.27;6.95;;;;;;;16.73;nan;101551.50;5044024;28;20040;-39
2023/06/02 04:07:43;;;;;;;11.13;4.47;;;;;;;16.76;nan;101540.66;5048386;28;20157;-40
2023/06/02 04:10:09;;;;;;;11.35;4.07;;;;;;;16.83;nan;101540.22;5044884;28;20025;-40
2023/06/02 04:12:35;;;;;;;13.05;4.68;;;;;;;16.86;nan;101550.63;5041846;28;20207;-40
2023/06/02 04:15:08;;;;;;;11.45;3.58;;;;;;;16.88;nan;101557.53;5049797;28;20495;-41
2023/06/02 04:17:33;;;;;;;13.20;4.15;;;;;;;16.92;nan;101551.06;5048874;28;20029;-41
2023/06/02 04:19:59;;;;;;;14.93;4.10;;;;;;;16.96;nan;101557.03;5040992;28;20055;-40
2023/06/02 04:22:24;;;;;;;14.73;3.75;;;;;;;17.00;nan;101563.81;5037231;28;20051;-40
2023/06/02 04:24:50;;;;;;;15.02;4.57;;;;;;;17.04;nan;101570.59;5043455;28;20715;-39
2023/06/02 04:27:17;;;;;;;17.05;5.10;;;;;;;17.11;nan;101564.84;5039871;28;20037;-40
2023/06/02 04:29:42;;;;;;;11.93;4.85;;;;;;;17.16;nan;101570.69;5037154;28;20662;-40
2023/06/02 04:32:08;;;;;;;13.88;4.60;;;;;;;17.21;nan;101574.72;5030046;28;20037;-40
2023/06/02 04:34:35;;;;;;;18.08;4.78;;;;;;;17.26;nan;101582.34;5027556;28;20037;-39
2023/06/02 04:37:01;;;;;;;12.75;4.13;;;;;;;17.26;nan;101582.34;5041274;28;20074;-40
2023/06/02 04:39:26;;;;;;;17.52;5.10;;;;;;;17.27;nan;101585.84;5037304;28;20029;-40
2023/06/02 04:41:51;;;;;;;12.48;4.70;;;;;;;17.28;nan;101593.72;5046365;28;20407;-40
2023/06/02 04:44:17;;;;;;;15.35;6.10;;;;;;;17.27;nan;101589.38;5037125;28;20044;-41
2023/06/02 04:46:43;;;;;;;16.80;4.00;;;;;;;17.30;nan;101591.81;5012643;28;20032;-40
2023/06/02 04:49:09;;;;;;;17.40;5.25;;;;;;;17.30;nan;101598.91;5042383;28;20020;-40
2023/06/02 04:51:37;;;;;;;14.07;4.43;;;;;;;17.28;nan;101601.72;5049916;28;20653;-40
2023/06/02 04:54:02;;;;;;;14.52;4.72;;;;;;;17.27;nan;101600.00;5046525;28;20453;-39
2023/06/02 04:56:28;;;;;;;11.70;4.43;;;;;;;17.28;nan;101592.84;5038221;28;20035;-40
2023/06/02 04:58:53;;;;;;;13.43;4.22;;;;;;;17.28;nan;101604.38;5040034;28;20039;-40
2023/06/02 05:01:19;;;;;;;12.88;4.40;;;;;;;17.28;nan;101604.38;5047226;28;20422;-40
2023/06/02 05:03:44;;;;;;;19.77;4.68;;;;;;;17.25;nan;101604.59;5032689;28;20115;-39
2023/06/02 05:06:10;;;;;;;14.27;4.32;;;;;;;17.27;nan;101602.66;5041033;28;20053;-41
2023/06/02 05:08:36;;;;;;;16.63;6.90;;;;;;;17.29;nan;101598.09;5034106;28;20050;-42
2023/06/02 05:11:02;;;;;;;13.57;6.38;;;;;;;17.34;nan;101606.56;5026432;28;20037;-40
2023/06/02 05:13:28;;;;;;;14.10;4.65;;;;;;;17.34;nan;101606.56;5044067;28;20033;-39
2023/06/02 05:15:55;;;;;;;15.60;4.60;;;;;;;17.37;nan;101616.97;5051850;28;20043;-41
2023/06/02 05:18:21;;;;;;;14.65;6.05;;;;;;;17.36;nan;101615.28;5030436;28;20080;-41
2023/06/02 05:20:47;;;;;;;13.75;4.57;;;;;;;17.35;nan;101616.25;5046890;28;20079;-40
2023/06/02 05:23:12;;;;;;;15.90;5.32;;;;;;;17.37;nan;101619.66;5047058;28;20447;-39
2023/06/02 05:25:41;;;;;;;9.68;4.40;;;;;;;17.41;nan;101619.44;5042715;28;20052;-40
2023/06/02 05:28:07;;;;;;;13.50;4.80;;;;;;;17.39;nan;101619.56;5030851;28;20041;-42
2023/06/02 05:30:32;;;;;;;11.30;4.22;;;;;;;17.39;nan;101621.34;5021541;28;20313;-41
2023/06/02 05:32:58;;;;;;;13.10;6.25;;;;;;;17.39;nan;101624.88;5044600;28;20028;-40
2023/06/02 05:35:23;;;;;;;11.20;5.13;;;;;;;17.36;nan;101627.75;5033463;28;20078;-41
2023/06/02 05:37:49;;;;;;;12.27;4.97;;;;;;;17.33;nan;101628.81;5039719;28;20043;-39
2023/06/02 05:40:14;;;;;;;11.27;4.80;;;;;;;17.35;nan;101626.03;5015991;28;20049;-40
2023/06/02 05:42:39;;;;;;;10.20;3.40;;;;;;;17.32;nan;101632.41;5043949;28;20083;-40
2023/06/02 05:45:06;;;;;;;20.73;10.05;;;;;;;17.34;nan;101633.16;5051233;28;20021;-40
2023/06/02 05:47:32;;;;;;;9.73;4.10;;;;;;;17.34;nan;101638.47;5048346;28;20079;-40
2023/06/02 05:49:58;;;;;;;8.45;2.97;;;;;;;17.28;nan;101636.28;5039347;28;21422;-40
2023/06/02 05:52:24;;;;;;;8.90;2.22;;;;;;;17.32;nan;101642.22;5040500;28;20041;-40
2023/06/02 05:54:50;;;;;;;5.93;2.28;;;;;;;17.31;nan;101652.03;5046114;28;20090;-40
2023/06/02 05:57:17;;;;;;;5.78;2.25;;;;;;;17.32;nan;101652.84;5037505;28;20055;-41
2023/06/02 05:59:43;;;;;;;3.33;1.90;;;;;;;17.31;nan;101657.34;5035123;28;20071;-40
2023/06/02 06:02:08;;;;;;;7.18;2.17;;;;;;;17.30;nan;101650.31;5021713;28;20116;-39
2023/06/02 06:04:34;;;;;;;8.15;1.60;;;;;;;17.24;nan;101658.72;5046215;28;20376;-39
2023/06/02 06:06:59;;;;;;;22.52;9.85;;;;;;;17.27;nan;101670.94;5036948;28;20032;-39
2023/06/02 06:09:25;;;;;;;6.13;2.05;;;;;;;17.21;nan;101667.78;5041841;28;20414;-39
2023/06/02 06:11:50;;;;;;;8.52;2.95;;;;;;;17.14;nan;101669.16;5040635;28;20051;-41
2023/06/02 06:14:16;;;;;;;4.50;1.85;;;;;;;17.08;nan;101671.41;5045523;28;20658;-40
2023/06/02 06:16:41;;;;;;;9.30;1.85;;;;;;;17.08;nan;101676.72;5044193;28;20048;-40
2023/06/02 06:19:07;;;;;;;8.45;1.50;;;;;;;17.06;nan;101672.38;5050360;28;20021;-41
2023/06/02 06:21:33;;;;;;;9.65;1.83;;;;;;;17.10;nan;101685.47;5038083;28;20034;-41
2023/06/02 06:23:58;;;;;;;6.72;1.50;;;;;;;17.14;nan;101687.78;5018698;28;20408;-40
2023/06/02 06:26:24;;;;;;;11.27;1.60;;;;;;;17.18;nan;101689.28;5042047;28;20438;-41
2023/06/02 06:28:49;;;;;;;9.02;1.48;;;;;;;17.13;nan;101695.88;5037903;28;20030;-40
2023/06/02 06:31:15;;;;;;;4.75;1.60;;;;;;;17.09;nan;101697.91;5041163;28;20485;-41
2023/06/02 06:33:40;;;;;;;5.72;1.77;;;;;;;17.03;nan;101701.81;5031497;28;20060;-40
2023/06/02 06:36:06;;;;;;;4.70;1.27;;;;;;;17.00;nan;101712.69;5034442;28;20024;-40
2023/06/02 06:38:31;;;;;;;4.80;1.30;;;;;;;16.99;nan;101708.34;5033053;28;20472;-41
2023/06/02 06:40:57;;;;;;;3.90;1.10;;;;;;;17.02;nan;101715.25;5022063;28;20029;-40
2023/06/02 06:43:22;;;;;;;10.02;1.38;;;;;;;17.10;nan;101718.19;5040958;28;20036;-40
2023/06/02 06:45:48;;;;;;;9.50;1.70;;;;;;;17.19;nan;101716.72;5022753;28;20041;-40
2023/06/02 06:48:13;;;;;;;9.15;1.85;;;;;;;17.29;nan;101716.91;5041520;28;20473;-40
2023/06/02 06:50:39;;;;;;;3.58;1.50;;;;;;;17.23;nan;101718.19;5034545;28;20036;-40
2023/06/02 06:53:05;;;;;;;6.20;1.55;;;;;;;17.24;nan;101713.75;5040529;28;20483;-41
2023/06/02 06:55:31;;;;;;;5.10;1.10;;;;;;;17.28;nan;101720.53;5043535;28;20045;-40
2023/06/02 06:57:56;;;;;;;7.60;1.42;;;;;;;17.24;nan;101729.72;5039933;28;20123;-42
2023/06/02 07:00:22;;;;;;;5.47;0.82;;;;;;;17.23;nan;101734.16;5039610;28;20483;-40
2023/06/02 07:02:51;;;;;;;4.07;1.10;;;;;;;17.19;nan;101724.69;5050444;28;20033;-40
2023/06/02 07:05:16;;;;;;;5.30;1.60;;;;;;;17.14;nan;101734.81;5021246;28;20033;-40
2023/06/02 07:07:43;;;;;;;5.80;2.00;;;;;;;17.09;nan;101732.47;5029395;28;20024;-41
2023/06/02 07:10:09;;;;;;;4.70;1.40;;;;;;;17.15;nan;101742.69;5049938;28;20688;-41
2023/06/02 07:12:34;;;;;;;10.43;2.45;;;;;;;17.15;nan;101739.19;5041827;28;20051;-39
2023/06/02 07:15:00;;;;;;;4.00;0.98;;;;;;;17.14;nan;101746.28;5039731;28;20108;-40
2023/06/02 07:17:25;;;;;;;7.28;1.25;;;;;;;17.13;nan;101744.59;5044768;28;20017;-40
2023/06/02 07:19:50;;;;;;;4.65;1.35;;;;;;;17.08;nan;101751.19;5048803;28;20037;-40
2023/06/02 07:22:16;;;;;;;6.68;1.30;;;;;;;17.06;nan;101749.47;5042100;28;20113;-40
2023/06/02 07:24:42;;;;;;;4.88;1.60;;;;;;;17.11;nan;101745.66;5028283;28;20525;-41
2023/06/02 07:27:12;;;;;;;5.57;1.38;;;;;;;17.12;nan;101758.84;5031266;28;20063;-41
2023/06/02 07:29:38;;;;;;;3.47;0.88;;;;;;;17.10;nan;101754.59;5039293;28;20033;-40
2023/06/02 07:32:03;;;;;;;4.70;1.27;;;;;;;17.12;nan;101750.84;5020378;28;20037;-40
2023/06/02 07:34:29;;;;;;;4.68;1.58;;;;;;;17.15;nan;101757.78;5035669;28;20113;-41
2023/06/02 07:36:54;;;;;;;5.72;1.20;;;;;;;17.17;nan;101755.84;5046438;28;20033;-40
2023/06/02 07:39:20;;;;;;;5.25;1.10;;;;;;;17.18;nan;101755.75;5038568;28;20024;-40
2023/06/02 07:41:45;;;;;;;4.25;1.45;;;;;;;17.24;nan;101750.97;5029184;28;20562;-40
2023/06/02 07:44:10;;;;;;;1.58;0.80;;;;;;;17.26;nan;101755.22;5033456;28;20032;-43
2023/06/02 07:46:36;;;;;;;3.17;1.05;;;;;;;17.29;nan;101752.34;5045146;28;20041;-39
2023/06/02 07:49:01;;;;;;;5.45;1.23;;;;;;;17.36;nan;101756.28;5048432;28;20070;-40
2023/06/02 07:51:27;;;;;;;4.90;0.98;;;;;;;17.40;nan;101751.56;5040200;28;20543;-42
2023/06/02 07:53:53;;;;;;;7.47;1.30;;;;;;;17.46;nan;101755.63;5030895;28;20044;-42
2023/06/02 07:56:18;;;;;;;4.70;1.52;;;;;;;17.50;nan;101754.44;5027377;28;20029;-43
2023/06/02 07:58:46;;;;;;;4.68;1.00;;;;;;;17.54;nan;101753.28;5036102;28;20037;-41
2023/06/02 08:01:12;;;;;;;3.53;1.15;;;;;;;17.55;nan;101757.63;5046046;28;20026;-39
2023/06/02 08:03:39;;;;;;;7.10;1.70;;;;;;;17.56;nan;101764.66;5048418;28;20040;-40
2023/06/02 08:06:04;;;;;;;6.63;1.10;;;;;;;17.51;nan;101765.00;5047889;28;20191;-40
2023/06/02 08:08:30;;;;;;;1.58;0.38;;;;;;;17.52;nan;101765.81;5044211;28;20828;-42
2023/06/02 08:10:57;;;;;;;7.75;1.33;;;;;;;17.52;nan;101777.34;5028350;28;20021;-42
2023/06/02 08:13:22;;;;;;;5.78;1.42;;;;;;;17.54;nan;101777.22;5042572;28;20034;-43
2023/06/02 08:15:48;;;;;;;5.43;0.70;;;;;;;17.51;nan;101777.44;5032335;28;20059;-41
2023/06/02 08:18:14;;;;;;;19.25;1.77;;;;;;;17.52;nan;101765.81;5038843;28;20076;-42
2023/06/02 08:20:44;;;;;;;6.07;1.13;;;;;;;17.47;nan;101783.94;5038910;28;20039;-41
2023/06/02 08:23:10;;;;;;;5.22;1.75;;;;;;;17.46;nan;101785.75;5022707;28;20120;-43
2023/06/02 08:25:38;;;;;;;4.68;1.08;;;;;;;17.42;nan;101778.94;5016430;28;20021;-43
2023/06/02 08:28:07;;;;;;;8.27;1.35;;;;;;;17.37;nan;101768.63;5042109;28;20048;-41
2023/06/02 08:30:36;;;;;;;9.25;1.25;;;;;;;17.46;nan;101782.25;5044468;28;20521;-41
2023/06/02 08:33:03;;;;;;;3.10;1.35;;;;;;;17.52;nan;101780.00;5041898;28;20056;-41
2023/06/02 08:35:32;;;;;;;2.85;1.00;;;;;;;17.59;nan;101777.75;5044664;28;20070;-43
2023/06/02 08:38:01;;;;;;;3.25;1.00;;;;;;;17.61;nan;101770.50;5041344;28;20052;-42
2023/06/02 08:40:37;;;;;;;7.20;1.13;;;;;;;17.68;nan;101787.72;5049487;28;20490;-40
2023/06/02 08:43:08;;;;;;;7.05;2.10;;;;;;;17.74;nan;101785.59;5036701;28;20483;-42
2023/06/02 08:45:39;;;;;;;8.32;2.58;;;;;;;17.74;nan;101796.25;5043840;28;20395;-40
2023/06/02 08:48:06;;;;;;;13.77;3.75;;;;;;;17.72;nan;101779.53;5043426;28;20399;-40
2023/06/02 08:50:44;;;;;;;12.75;3.63;;;;;;;17.72;nan;101788.34;5045366;28;20564;-41
2023/06/02 08:53:14;;;;;;;6.05;1.73;;;;;;;17.77;nan;101791.53;5041482;28;20116;-42
2023/06/02 08:55:41;;;;;;;4.95;1.75;;;;;;;17.83;nan;101788.44;5021699;28;20049;-40
2023/06/02 08:58:10;;;;;;;5.63;1.20;;;;;;;17.87;nan;101797.06;5028423;28;20070;-40
2023/06/02 09:00:38;;;;;;;13.80;1.42;;;;;;;17.89;nan;101795.16;5025196;28;20040;-39
2023/06/02 09:03:04;;;;;;;5.18;1.08;;;;;;;17.92;nan;101805.53;5045738;28;20025;-40
2023/06/02 09:05:34;;;;;;;4.55;1.02;;;;;;;17.95;nan;101800.00;5043012;28;20144;-40
2023/06/02 09:08:12;;;;;;;3.60;1.20;;;;;;;17.97;nan;101808.78;5038561;28;20044;-40
2023/06/02 09:10:41;;;;;;;6.18;1.67;;;;;;;18.02;nan;101799.59;5031881;28;20489;-39
2023/06/02 09:13:28;;;;;;;3.50;1.13;;;;;;;18.01;nan;101811.22;5039263;28;20543;-40
2023/06/02 09:16:03;;;;;;;4.70;0.88;;;;;;;18.05;nan;101804.72;5039522;28;20679;-40
2023/06/02 09:18:29;;;;;;;5.10;1.02;;;;;;;18.08;nan;101815.13;5045778;28;20039;-41
2023/06/02 09:20:59;;;;;;;2.78;0.70;;;;;;;18.09;nan;101811.50;5046470;28;20059;-40
2023/06/02 09:23:44;;;;;;;3.70;1.02;;;;;;;18.09;nan;101811.50;5038923;28;20099;-39
2023/06/02 09:26:21;;;;;;;6.35;1.40;;;;;;;18.01;nan;101819.19;5043374;28;20040;-40
2023/06/02 09:29:07;;;;;;;7.75;1.80;;;;;;;17.93;nan;101817.91;5043213;28;20029;-40
2023/06/02 09:31:45;;;;;;;5.60;1.80;;;;;;;17.97;nan;101829.19;5032854;28;20127;-40
2023/06/02 09:34:12;;;;;;;6.43;1.38;;;;;;;17.96;nan;101823.00;5043603;28;20024;-40
2023/06/02 09:36:38;;;;;;;3.13;0.75;;;;;;;17.91;nan;101822.50;5026073;28;20061;-41
2023/06/02 09:39:05;;;;;;;3.40;1.17;;;;;;;17.94;nan;101819.59;5045159;28;20033;-40
2023/06/02 09:41:31;;;;;;;3.28;0.70;;;;;;;17.90;nan;101819.94;5039802;28;20036;-40
2023/06/02 09:43:56;;;;;;;3.70;0.60;;;;;;;17.91;nan;101818.97;5031360;28;20029;-42
2023/06/02 09:46:23;;;;;;;8.38;1.17;;;;;;;17.91;nan;101819.84;5039817;28;20422;-40
2023/06/02 09:48:59;;;;;;;8.07;1.15;;;;;;;17.96;nan;101825.66;5038991;28;20036;-39
2023/06/02 09:51:26;;;;;;;10.68;0.93;;;;;;;18.03;nan;101833.25;5041104;28;20060;-40
2023/06/02 09:53:51;;;;;;;5.15;1.17;;;;;;;18.09;nan;101816.81;5038887;28;20032;-39
2023/06/02 09:56:21;;;;;;;1.20;0.55;;;;;;;18.16;nan;101827.88;5044403;28;20037;-38
2023/06/02 09:58:46;;;;;;;8.35;1.00;;;;;;;18.15;nan;101827.03;5025865;28;20037;-40
2023/06/02 10:01:13;;;;;;;3.95;0.73;;;;;;;18.19;nan;101833.84;5046013;28;20364;-39
2023/06/02 10:03:43;;;;;;;8.05;0.98;;;;;;;18.24;nan;101841.50;5019433;28;20230;-40
2023/06/02 10:06:19;;;;;;;3.92;1.10;;;;;;;18.30;nan;101845.53;5034082;28;20044;-38
2023/06/02 10:09:01;;;;;;;20.90;7.63;;;;;;;18.35;nan;101844.22;5044225;28;20554;-38
2023/06/02 10:11:56;;;;;;;2.90;1.25;;;;;;;18.35;nan;101846.88;5042816;28;20029;-40
2023/06/02 10:14:40;;;;;;;2.65;0.65;;;;;;;18.38;nan;101845.81;5033867;28;20025;-39
2023/06/02 10:17:27;;;;;;;6.13;0.77;;;;;;;18.44;nan;101853.34;5029812;28;20044;-38
2023/06/02 10:20:07;;;;;;;3.42;0.65;;;;;;;18.49;nan;101851.22;5041343;28;20108;-40
2023/06/02 10:22:54;;;;;;;4.22;0.68;;;;;;;18.51;nan;101843.09;5034511;28;20372;-39
2023/06/02 10:25:26;;;;;;;15.48;6.82;;;;;;;18.54;nan;101853.53;5037563;28;20451;-41
2023/06/02 10:27:52;;;;;;;4.93;0.93;;;;;;;18.55;nan;101842.75;5037627;28;20037;-40
2023/06/02 10:30:21;;;;;;;3.65;0.80;;;;;;;18.58;nan;101847.84;5044035;28;20074;-39
2023/06/02 10:32:49;;;;;;;4.28;0.70;;;;;;;18.61;nan;101844.09;5042603;28;20040;-39
2023/06/02 10:35:15;;;;;;;1.98;0.60;;;;;;;18.67;nan;101848.16;5042239;28;20030;-39
2023/06/02 10:37:41;;;;;;;1.80;0.52;;;;;;;18.69;nan;101855.06;5043770;28;20036;-39
2023/06/02 10:40:10;;;;;;;3.22;0.50;;;;;;;18.77;nan;101854.47;5039490;28;20029;-40
2023/06/02 10:42:38;;;;;;;4.32;0.80;;;;;;;18.80;nan;101854.25;5040712;28;20094;-40
2023/06/02 10:45:24;;;;;;;7.60;1.08;;;;;;;18.84;nan;101855.72;5041705;28;20029;-40
2023/06/02 10:47:49;;;;;;;4.65;0.68;;;;;;;18.87;nan;101878.66;5033987;28;20083;-39
2023/06/02 10:50:21;;;;;;;3.88;0.43;;;;;;;18.84;nan;101860.19;5055070;28;20442;-39
2023/06/02 10:52:59;;;;;;;3.30;0.50;;;;;;;18.89;nan;101863.38;5041970;28;20036;-39
2023/06/02 10:55:26;;;;;;;5.57;2.03;;;;;;;18.90;nan;101865.09;5042113;28;20429;-39
2023/06/02 10:57:51;;;;;;;7.32;4.32;;;;;;;18.96;nan;101863.81;5042128;28;20044;-40
2023/06/02 11:00:44;;;;;;;4.28;1.58;;;;;;;19.07;nan;101874.50;5036280;28;20021;-39
2023/06/02 11:03:15;;;;;;;5.15;0.52;;;;;;;19.09;nan;101869.91;5040794;28;20024;-38
2023/06/02 11:05:42;;;;;;;15.73;1.30;;;;;;;19.08;nan;101881.53;5038068;28;20025;-39
2023/06/02 11:08:23;;;;;;;4.18;0.98;;;;;;;19.10;nan;101882.28;5041749;28;20286;-40
2023/06/02 11:10:55;;;;;;;4.78;1.20;;;;;;;19.14;nan;101877.53;5034987;28;20666;-39
2023/06/02 11:13:28;;;;;;;2.28;0.57;;;;;;;19.18;nan;101871.00;5043639;28;20024;-39
2023/06/02 11:15:53;;;;;;;2.17;0.68;;;;;;;19.22;nan;101876.97;5029592;28;20128;-39
2023/06/02 11:18:21;;;;;;;3.38;0.70;;;;;;;19.17;nan;101869.31;5032374;28;20120;-41
2023/06/02 11:20:51;;;;;;;5.13;0.95;;;;;;;19.22;nan;101874.28;5040111;28;20021;-39
2023/06/02 11:23:20;;;;;;;5.57;1.65;;;;;;;19.29;nan;101867.50;5038262;28;20091;-38
2023/06/02 11:25:49;;;;;;;9.48;2.25;;;;;;;19.37;nan;101878.44;5043521;28;20483;-39
2023/06/02 11:28:24;;;;;;;2.72;0.60;;;;;;;19.46;nan;101876.88;5007949;28;20056;-38
2023/06/02 11:31:14;;;;;;;4.95;0.60;;;;;;;19.55;nan;101878.81;5046898;28;20108;-39
2023/06/02 11:33:51;;;;;;;2.90;0.63;;;;;;;19.62;nan;101876.53;5047547;28;20029;-39
2023/06/02 11:36:24;;;;;;;8.55;1.33;;;;;;;19.70;nan;101879.47;5043948;28;20021;-38
2023/06/02 11:39:09;;;;;;;5.05;1.65;;;;;;;19.74;nan;101875.53;5042103;28;20116;-40
2023/06/02 11:41:34;;;;;;;5.43;0.63;;;;;;;19.79;nan;101881.38;5045482;28;20029;-40
2023/06/02 11:44:09;;;;;;;9.73;0.55;;;;;;;19.82;nan;101890.13;5036809;28;20037;-40